KHSI

Details ICAO KHSI
Name HASTINGS MUNI
Region United States
Timezone America/Chicago (UTC-6.0)
Plans Departing 2
Arriving 5
Stats Elevation 1,961 ft / 598 m (AMSL)
Location 40.604928° -98.427887°
Runways 2
Magnetic Variation 4.317° E
Sunrise 2017-12-14 13:51:11 UTC / 2017-12-14 07:51:11 Local
Sunset 2017-12-14 23:08:39 UTC / 2017-12-14 17:08:39 Local
Advertisement - Login to hide

Runways

ID Width Length Bearing (true) Bearing (mag) Surface Threshold Offset Overrun Length
04 75 ft / 23 m 4,502 ft / 1,372 m 46.70° 42.38° Concrete 0 ft / 0 m 0 ft / 0 m
14 98 ft / 30 m 6,456 ft / 1,968 m 150.40° 146.08° Concrete 0 ft / 0 m 0 ft / 0 m
22 75 ft / 23 m 4,502 ft / 1,372 m 226.70° 222.38° Concrete 0 ft / 0 m 0 ft / 0 m
32 98 ft / 30 m 6,456 ft / 1,968 m 330.40° 326.08° Concrete 951 ft / 290 m 0 ft / 0 m

Map

Weather


0- 5 10 15 20 25 30 35+ Temperature / ° C

Clouds and Precipitation
Forecast for 2017-12-15 00:00 UTC. Updated 2 hours ago

Ground ~20,000 ft ~40,000 ft Winds

METAR

KHSI 150105Z AUTO 33010KT 10SM OVC031 02/M01 A3016

TAF

Not found

Frequencies

Recorded 120.52 MHz ASOS
Unicom 122.80 MHz CTAF/UNICOM
Warning: Do not use this data for real-world aviation or navigation. No guarantee of current accuracy is given.